sensor_id;sensor_type;location;lat;lon;timestamp;pressure;altitude;pressure_sealevel;temperature;humidity
39301;BME280;25019;42.626;23.380;2023-08-24T00:01:32;94554.63;;;21.97;68.67
39301;BME280;25019;42.626;23.380;2023-08-24T00:03:58;94562.75;;;21.97;68.37
39301;BME280;25019;42.626;23.380;2023-08-24T00:06:24;94554.28;;;21.90;68.18
39301;BME280;25019;42.626;23.380;2023-08-24T00:08:50;94553.19;;;21.91;68.01
39301;BME280;25019;42.626;23.380;2023-08-24T00:11:15;94553.84;;;21.96;68.23
39301;BME280;25019;42.626;23.380;2023-08-24T00:13:42;94564.19;;;21.94;67.95
39301;BME280;25019;42.626;23.380;2023-08-24T00:16:20;94564.19;;;21.94;68.03
39301;BME280;25019;42.626;23.380;2023-08-24T00:18:47;94548.75;;;21.95;68.08
39301;BME280;25019;42.626;23.380;2023-08-24T00:21:16;94471.38;;;21.41;68.10
39301;BME280;25019;42.626;23.380;2023-08-24T00:23:48;94550.81;;;21.98;68.17
39301;BME280;25019;42.626;23.380;2023-08-24T00:26:14;94543.50;;;21.98;68.04
39301;BME280;25019;42.626;23.380;2023-08-24T00:28:42;94497.69;;;21.67;67.92
39301;BME280;25019;42.626;23.380;2023-08-24T00:31:08;94541.09;;;21.97;67.98
39301;BME280;25019;42.626;23.380;2023-08-24T00:33:34;94542.88;;;22.02;67.66
39301;BME280;25019;42.626;23.380;2023-08-24T00:36:00;94515.03;;;21.83;67.98
39301;BME280;25019;42.626;23.380;2023-08-24T00:38:26;94543.66;;;22.02;67.85
39301;BME280;25019;42.626;23.380;2023-08-24T00:40:52;94481.78;;;21.65;67.88
39301;BME280;25019;42.626;23.380;2023-08-24T00:43:19;94541.75;;;22.03;67.63
39301;BME280;25019;42.626;23.380;2023-08-24T00:45:53;94547.97;;;22.03;67.92
39301;BME280;25019;42.626;23.380;2023-08-24T00:48:21;94540.31;;;21.96;68.00
39301;BME280;25019;42.626;23.380;2023-08-24T00:51:09;94546.22;;;21.98;67.86
39301;BME280;25019;42.626;23.380;2023-08-24T00:53:36;94556.22;;;21.98;68.05
39301;BME280;25019;42.626;23.380;2023-08-24T00:56:02;94546.22;;;21.98;68.46
39301;BME280;25019;42.626;23.380;2023-08-24T00:58:29;94556.22;;;21.98;68.47
39301;BME280;25019;42.626;23.380;2023-08-24T01:00:56;94552.06;;;21.92;68.13
39301;BME280;25019;42.626;23.380;2023-08-24T01:03:23;94552.88;;;21.83;68.92
39301;BME280;25019;42.626;23.380;2023-08-24T01:05:51;94552.06;;;21.74;69.30
39301;BME280;25019;42.626;23.380;2023-08-24T01:08:18;94565.25;;;21.76;69.47
39301;BME280;25019;42.626;23.380;2023-08-24T01:10:52;94560.16;;;21.74;69.41
39301;BME280;25019;42.626;23.380;2023-08-24T01:13:38;94563.19;;;21.73;69.75
39301;BME280;25019;42.626;23.380;2023-08-24T01:16:16;94559.81;;;21.67;69.55
39301;BME280;25019;42.626;23.380;2023-08-24T01:18:44;94564.44;;;21.66;70.05
39301;BME280;25019;42.626;23.380;2023-08-24T01:21:10;94549.66;;;21.64;69.82
39301;BME280;25019;42.626;23.380;2023-08-24T01:24:12;94551.53;;;21.54;70.68
39301;BME280;25019;42.626;23.380;2023-08-24T01:26:40;94562.97;;;21.51;70.57
39301;BME280;25019;42.626;23.380;2023-08-24T01:29:07;94549.44;;;21.43;70.92
39301;BME280;25019;42.626;23.380;2023-08-24T01:31:32;94565.00;;;21.46;71.00
39301;BME280;25019;42.626;23.380;2023-08-24T01:33:58;94539.88;;;21.36;71.10
39301;BME280;25019;42.626;23.380;2023-08-24T01:36:25;94544.16;;;21.37;71.10
39301;BME280;25019;42.626;23.380;2023-08-24T01:39:02;94560.53;;;21.41;71.18
39301;BME280;25019;42.626;23.380;2023-08-24T01:41:37;94553.38;;;21.36;71.77
39301;BME280;25019;42.626;23.380;2023-08-24T01:44:06;94547.75;;;21.24;71.51
39301;BME280;25019;42.626;23.380;2023-08-24T01:46:34;94560.34;;;21.29;71.62
39301;BME280;25019;42.626;23.380;2023-08-24T01:49:00;94562.56;;;21.27;71.85
39301;BME280;25019;42.626;23.380;2023-08-24T01:51:27;94486.16;;;20.77;71.72
39301;BME280;25019;42.626;23.380;2023-08-24T01:53:54;94524.28;;;20.93;71.98
39301;BME280;25019;42.626;23.380;2023-08-24T01:56:20;94558.41;;;21.20;72.29
39301;BME280;25019;42.626;23.380;2023-08-24T01:58:45;94559.19;;;21.21;72.63
39301;BME280;25019;42.626;23.380;2023-08-24T02:01:11;94513.03;;;20.91;72.65
39301;BME280;25019;42.626;23.380;2023-08-24T02:03:38;94552.50;;;21.18;72.01
39301;BME280;25019;42.626;23.380;2023-08-24T02:06:05;94553.63;;;21.17;72.37
39301;BME280;25019;42.626;23.380;2023-08-24T02:08:32;94493.59;;;20.80;72.60
39301;BME280;25019;42.626;23.380;2023-08-24T02:10:58;94550.44;;;21.15;72.41
39301;BME280;25019;42.626;23.380;2023-08-24T02:13:24;94545.00;;;21.06;72.61
39301;BME280;25019;42.626;23.380;2023-08-24T02:15:49;94557.06;;;21.09;72.71
39301;BME280;25019;42.626;23.380;2023-08-24T02:18:15;94558.81;;;21.05;72.56
39301;BME280;25019;42.626;23.380;2023-08-24T02:20:41;94495.53;;;20.57;72.95
39301;BME280;25019;42.626;23.380;2023-08-24T02:23:06;94555.94;;;21.01;73.62
39301;BME280;25019;42.626;23.380;2023-08-24T02:25:32;94548.78;;;20.97;73.62
39301;BME280;25019;42.626;23.380;2023-08-24T02:27:59;94552.75;;;20.99;73.73
39301;BME280;25019;42.626;23.380;2023-08-24T02:30:24;94565.13;;;21.00;73.20
39301;BME280;25019;42.626;23.380;2023-08-24T02:32:50;94558.75;;;20.96;73.34
39301;BME280;25019;42.626;23.380;2023-08-24T02:35:16;94573.56;;;20.99;73.78
39301;BME280;25019;42.626;23.380;2023-08-24T02:37:43;94555.53;;;20.85;73.41
39301;BME280;25019;42.626;23.380;2023-08-24T02:40:09;94572.25;;;20.96;73.51
39301;BME280;25019;42.626;23.380;2023-08-24T02:42:35;94566.53;;;20.89;73.42
39301;BME280;25019;42.626;23.380;2023-08-24T02:45:01;94576.22;;;20.90;73.36
39301;BME280;25019;42.626;23.380;2023-08-24T02:47:27;94551.78;;;20.72;73.82
39301;BME280;25019;42.626;23.380;2023-08-24T02:49:53;94568.41;;;20.88;73.64
39301;BME280;25019;42.626;23.380;2023-08-24T02:52:19;94566.34;;;20.85;73.78
39301;BME280;25019;42.626;23.380;2023-08-24T02:54:44;94560.44;;;20.83;74.65
39301;BME280;25019;42.626;23.380;2023-08-24T02:57:10;94558.69;;;20.78;74.93
39301;BME280;25019;42.626;23.380;2023-08-24T02:59:35;94551.00;;;20.72;75.68
39301;BME280;25019;42.626;23.380;2023-08-24T03:02:01;94551.38;;;20.56;76.81
39301;BME280;25019;42.626;23.380;2023-08-24T03:04:27;94546.59;;;20.53;76.91
39301;BME280;25019;42.626;23.380;2023-08-24T03:06:52;94546.00;;;20.33;77.85
39301;BME280;25019;42.626;23.380;2023-08-24T03:09:18;94462.72;;;19.72;77.70
39301;BME280;25019;42.626;23.380;2023-08-24T03:11:44;94505.16;;;20.03;77.55
39301;BME280;25019;42.626;23.380;2023-08-24T03:14:10;94556.78;;;20.33;77.23
39301;BME280;25019;42.626;23.380;2023-08-24T03:16:38;94544.41;;;20.32;76.76
39301;BME280;25019;42.626;23.380;2023-08-24T03:19:04;94552.50;;;20.32;77.13
39301;BME280;25019;42.626;23.380;2023-08-24T03:21:31;94545.00;;;20.29;76.89
39301;BME280;25019;42.626;23.380;2023-08-24T03:23:57;94552.00;;;20.30;76.89
39301;BME280;25019;42.626;23.380;2023-08-24T03:26:22;94553.09;;;20.29;76.61
39301;BME280;25019;42.626;23.380;2023-08-24T03:28:49;94553.59;;;20.31;76.40
39301;BME280;25019;42.626;23.380;2023-08-24T03:31:15;94557.88;;;20.32;76.50
39301;BME280;25019;42.626;23.380;2023-08-24T03:33:41;94499.91;;;19.84;75.86
39301;BME280;25019;42.626;23.380;2023-08-24T03:36:06;94573.50;;;20.21;75.46
39301;BME280;25019;42.626;23.380;2023-08-24T03:38:32;94507.25;;;19.70;76.45
39301;BME280;25019;42.626;23.380;2023-08-24T03:41:04;94598.75;;;20.26;75.83
39301;BME280;25019;42.626;23.380;2023-08-24T03:43:34;94593.06;;;20.27;76.18
39301;BME280;25019;42.626;23.380;2023-08-24T03:46:01;94602.94;;;20.32;76.03
39301;BME280;25019;42.626;23.380;2023-08-24T03:48:27;94609.44;;;20.31;76.13
39301;BME280;25019;42.626;23.380;2023-08-24T03:50:56;94602.94;;;20.32;76.62
39301;BME280;25019;42.626;23.380;2023-08-24T03:53:22;94601.94;;;20.28;76.11
39301;BME280;25019;42.626;23.380;2023-08-24T03:55:49;94604.34;;;20.29;76.62
39301;BME280;25019;42.626;23.380;2023-08-24T03:58:16;94604.81;;;20.31;77.57
39301;BME280;25019;42.626;23.380;2023-08-24T04:00:43;94600.97;;;20.24;78.26
39301;BME280;25019;42.626;23.380;2023-08-24T04:03:09;94618.19;;;20.36;77.98
39301;BME280;25019;42.626;23.380;2023-08-24T04:05:35;94610.88;;;20.37;77.92
39301;BME280;25019;42.626;23.380;2023-08-24T04:08:00;94562.94;;;20.11;78.56
39301;BME280;25019;42.626;23.380;2023-08-24T04:10:28;94619.38;;;20.44;78.78
39301;BME280;25019;42.626;23.380;2023-08-24T04:12:57;94611.16;;;20.49;79.27
39301;BME280;25019;42.626;23.380;2023-08-24T04:15:22;94591.59;;;20.44;79.80
39301;BME280;25019;42.626;23.380;2023-08-24T04:17:49;94614.19;;;20.48;80.14
39301;BME280;25019;42.626;23.380;2023-08-24T04:20:16;94597.91;;;20.39;80.07
39301;BME280;25019;42.626;23.380;2023-08-24T04:22:42;94606.50;;;20.41;80.52
39301;BME280;25019;42.626;23.380;2023-08-24T04:25:08;94604.09;;;20.40;80.81
39301;BME280;25019;42.626;23.380;2023-08-24T04:27:34;94601.41;;;20.40;81.02
39301;BME280;25019;42.626;23.380;2023-08-24T04:30:00;94604.59;;;20.42;81.04
39301;BME280;25019;42.626;23.380;2023-08-24T04:32:27;94598.09;;;20.43;80.45
39301;BME280;25019;42.626;23.380;2023-08-24T04:34:53;94597.78;;;20.44;79.90
39301;BME280;25019;42.626;23.380;2023-08-24T04:37:18;94595.91;;;20.45;79.17
39301;BME280;25019;42.626;23.380;2023-08-24T04:39:44;94596.41;;;20.47;78.84
39301;BME280;25019;42.626;23.380;2023-08-24T04:42:09;94603.56;;;20.51;78.18
39301;BME280;25019;42.626;23.380;2023-08-24T04:44:35;94605.16;;;20.53;77.31
39301;BME280;25019;42.626;23.380;2023-08-24T04:47:01;94609.69;;;20.43;76.00
39301;BME280;25019;42.626;23.380;2023-08-24T04:49:26;94619.31;;;20.35;76.35
39301;BME280;25019;42.626;23.380;2023-08-24T04:51:53;94619.31;;;20.35;76.44
39301;BME280;25019;42.626;23.380;2023-08-24T04:54:19;94606.44;;;20.32;76.37
39301;BME280;25019;42.626;23.380;2023-08-24T04:56:45;94615.06;;;20.43;76.51
39301;BME280;25019;42.626;23.380;2023-08-24T04:59:10;94570.50;;;20.23;76.60
39301;BME280;25019;42.626;23.380;2023-08-24T05:01:36;94530.75;;;20.06;75.96
39301;BME280;25019;42.626;23.380;2023-08-24T05:04:02;94613.69;;;20.69;75.30
39301;BME280;25019;42.626;23.380;2023-08-24T05:06:28;94620.44;;;20.80;74.97
39301;BME280;25019;42.626;23.380;2023-08-24T05:08:54;94613.53;;;20.88;74.34
39301;BME280;25019;42.626;23.380;2023-08-24T05:11:22;94615.53;;;21.05;73.58
39301;BME280;25019;42.626;23.380;2023-08-24T05:13:51;94613.38;;;21.24;73.58
39301;BME280;25019;42.626;23.380;2023-08-24T05:16:17;94610.88;;;21.37;72.92
39301;BME280;25019;42.626;23.380;2023-08-24T05:18:43;94609.03;;;21.46;71.87
39301;BME280;25019;42.626;23.380;2023-08-24T05:21:08;94618.13;;;21.59;71.47
39301;BME280;25019;42.626;23.380;2023-08-24T05:23:34;94529.91;;;21.05;72.51
39301;BME280;25019;42.626;23.380;2023-08-24T05:26:01;94628.97;;;21.68;73.11
39301;BME280;25019;42.626;23.380;2023-08-24T05:28:29;94619.78;;;21.78;73.24
39301;BME280;25019;42.626;23.380;2023-08-24T05:30:55;94623.47;;;21.82;73.51
39301;BME280;25019;42.626;23.380;2023-08-24T05:33:22;94622.22;;;21.88;73.79
39301;BME280;25019;42.626;23.380;2023-08-24T05:35:48;94621.44;;;22.05;72.47
39301;BME280;25019;42.626;23.380;2023-08-24T05:38:15;94622.41;;;22.09;71.68
39301;BME280;25019;42.626;23.380;2023-08-24T05:40:42;94575.00;;;21.85;71.38
39301;BME280;25019;42.626;23.380;2023-08-24T05:43:09;94630.69;;;22.30;71.00
39301;BME280;25019;42.626;23.380;2023-08-24T05:45:35;94636.59;;;22.41;70.44
39301;BME280;25019;42.626;23.380;2023-08-24T05:48:01;94632.47;;;22.53;70.41
39301;BME280;25019;42.626;23.380;2023-08-24T05:50:27;94585.50;;;22.31;69.69
39301;BME280;25019;42.626;23.380;2023-08-24T05:52:52;94636.31;;;22.78;69.51
39301;BME280;25019;42.626;23.380;2023-08-24T05:55:18;94642.31;;;22.93;69.44
39301;BME280;25019;42.626;23.380;2023-08-24T05:57:44;94635.94;;;23.06;68.66
39301;BME280;25019;42.626;23.380;2023-08-24T06:00:10;94644.22;;;23.10;68.78
39301;BME280;25019;42.626;23.380;2023-08-24T06:02:40;94575.97;;;22.69;68.79
39301;BME280;25019;42.626;23.380;2023-08-24T06:05:06;94585.28;;;22.98;68.08
39301;BME280;25019;42.626;23.380;2023-08-24T06:07:33;94632.06;;;23.33;67.30
39301;BME280;25019;42.626;23.380;2023-08-24T06:09:59;94639.97;;;23.47;67.27
39301;BME280;25019;42.626;23.380;2023-08-24T06:12:24;94653.47;;;23.65;66.83
39301;BME280;25019;42.626;23.380;2023-08-24T06:14:50;94602.03;;;23.47;66.44
39301;BME280;25019;42.626;23.380;2023-08-24T06:17:16;94640.28;;;23.85;66.40
39301;BME280;25019;42.626;23.380;2023-08-24T06:19:42;94602.56;;;23.71;65.82
39301;BME280;25019;42.626;23.380;2023-08-24T06:22:08;94648.75;;;24.22;64.68
39301;BME280;25019;42.626;23.380;2023-08-24T06:24:34;94657.75;;;24.35;63.93
39301;BME280;25019;42.626;23.380;2023-08-24T06:27:00;94660.88;;;24.46;63.51
39301;BME280;25019;42.626;23.380;2023-08-24T06:29:28;94650.28;;;24.53;63.97
39301;BME280;25019;42.626;23.380;2023-08-24T06:31:53;94661.06;;;24.62;63.72
39301;BME280;25019;42.626;23.380;2023-08-24T06:34:20;94647.41;;;24.71;63.88
39301;BME280;25019;42.626;23.380;2023-08-24T06:36:45;94634.97;;;24.69;63.98
39301;BME280;25019;42.626;23.380;2023-08-24T06:39:12;94650.25;;;24.95;63.94
39301;BME280;25019;42.626;23.380;2023-08-24T06:41:38;94649.47;;;24.95;64.04
39301;BME280;25019;42.626;23.380;2023-08-24T06:44:06;94653.72;;;24.83;63.88
39301;BME280;25019;42.626;23.380;2023-08-24T06:46:32;94654.50;;;24.84;64.28
39301;BME280;25019;42.626;23.380;2023-08-24T06:48:58;94646.97;;;24.90;64.40
39301;BME280;25019;42.626;23.380;2023-08-24T06:51:25;94649.75;;;24.81;64.93
39301;BME280;25019;42.626;23.380;2023-08-24T06:53:51;94643.97;;;24.82;65.26
39301;BME280;25019;42.626;23.380;2023-08-24T06:56:16;94642.50;;;24.85;64.87
39301;BME280;25019;42.626;23.380;2023-08-24T06:58:43;94651.03;;;24.96;65.95
39301;BME280;25019;42.626;23.380;2023-08-24T07:01:08;94637.38;;;25.05;64.75
39301;BME280;25019;42.626;23.380;2023-08-24T07:03:34;94647.41;;;25.25;63.81
39301;BME280;25019;42.626;23.380;2023-08-24T07:05:59;94645.03;;;25.36;63.52
39301;BME280;25019;42.626;23.380;2023-08-24T07:08:25;94638.25;;;25.42;62.96
39301;BME280;25019;42.626;23.380;2023-08-24T07:10:50;94620.19;;;25.47;62.65
39301;BME280;25019;42.626;23.380;2023-08-24T07:13:16;94579.41;;;25.47;62.17
39301;BME280;25019;42.626;23.380;2023-08-24T07:15:42;94633.31;;;25.94;61.53
39301;BME280;25019;42.626;23.380;2023-08-24T07:18:08;94635.81;;;26.24;61.26
39301;BME280;25019;42.626;23.380;2023-08-24T07:20:35;94587.06;;;26.19;59.00
39301;BME280;25019;42.626;23.380;2023-08-24T07:23:01;94633.94;;;26.53;59.15
39301;BME280;25019;42.626;23.380;2023-08-24T07:25:27;94633.09;;;26.65;58.06
39301;BME280;25019;42.626;23.380;2023-08-24T07:27:53;94578.88;;;26.60;57.59
39301;BME280;25019;42.626;23.380;2023-08-24T07:30:27;94570.09;;;26.67;57.56
39301;BME280;25019;42.626;23.380;2023-08-24T07:32:55;94618.22;;;27.19;57.10
39301;BME280;25019;42.626;23.380;2023-08-24T07:35:21;94585.34;;;26.96;56.09
39301;BME280;25019;42.626;23.380;2023-08-24T07:37:53;94618.44;;;27.27;54.75
39301;BME280;25019;42.626;23.380;2023-08-24T07:40:19;94614.91;;;27.26;54.73
39301;BME280;25019;42.626;23.380;2023-08-24T07:42:48;94623.44;;;27.25;54.61
39301;BME280;25019;42.626;23.380;2023-08-24T07:45:16;94624.41;;;27.16;55.44
39301;BME280;25019;42.626;23.380;2023-08-24T07:47:43;94623.34;;;27.21;55.12
39301;BME280;25019;42.626;23.380;2023-08-24T07:50:10;94561.44;;;26.89;54.87
39301;BME280;25019;42.626;23.380;2023-08-24T07:52:39;94621.69;;;27.32;54.74
39301;BME280;25019;42.626;23.380;2023-08-24T07:55:09;94617.97;;;27.25;54.67
39301;BME280;25019;42.626;23.380;2023-08-24T07:57:35;94619.75;;;27.33;54.91
39301;BME280;25019;42.626;23.380;2023-08-24T08:00:05;94616.25;;;27.48;54.59
39301;BME280;25019;42.626;23.380;2023-08-24T08:02:38;94580.25;;;27.27;53.84
39301;BME280;25019;42.626;23.380;2023-08-24T08:05:04;94625.00;;;27.54;53.88
39301;BME280;25019;42.626;23.380;2023-08-24T08:07:30;94618.66;;;27.66;54.19
39301;BME280;25019;42.626;23.380;2023-08-24T08:09:55;94603.06;;;27.66;52.81
39301;BME280;25019;42.626;23.380;2023-08-24T08:12:21;94625.75;;;27.87;52.72
39301;BME280;25019;42.626;23.380;2023-08-24T08:14:47;94625.75;;;27.87;52.66
39301;BME280;25019;42.626;23.380;2023-08-24T08:17:13;94626.91;;;27.70;52.78
39301;BME280;25019;42.626;23.380;2023-08-24T08:19:38;94606.69;;;27.71;52.63
39301;BME280;25019;42.626;23.380;2023-08-24T08:22:05;94610.66;;;27.57;51.89
39301;BME280;25019;42.626;23.380;2023-08-24T08:24:30;94625.59;;;27.79;52.07
39301;BME280;25019;42.626;23.380;2023-08-24T08:26:56;94624.09;;;27.82;51.17
39301;BME280;25019;42.626;23.380;2023-08-24T08:29:22;94626.91;;;27.86;51.45
39301;BME280;25019;42.626;23.380;2023-08-24T08:31:48;94625.13;;;27.93;50.89
39301;BME280;25019;42.626;23.380;2023-08-24T08:34:14;94620.66;;;28.01;50.53
39301;BME280;25019;42.626;23.380;2023-08-24T08:36:39;94610.88;;;28.00;50.44
39301;BME280;25019;42.626;23.380;2023-08-24T08:39:05;94615.69;;;28.07;50.70
39301;BME280;25019;42.626;23.380;2023-08-24T08:41:34;94613.75;;;28.07;50.83
39301;BME280;25019;42.626;23.380;2023-08-24T08:44:04;94604.06;;;28.10;49.99
39301;BME280;25019;42.626;23.380;2023-08-24T08:46:32;94601.16;;;28.19;49.63
39301;BME280;25019;42.626;23.380;2023-08-24T08:48:59;94597.63;;;28.18;49.56
39301;BME280;25019;42.626;23.380;2023-08-24T08:51:25;94599.03;;;28.28;49.48
39301;BME280;25019;42.626;23.380;2023-08-24T08:53:52;94596.22;;;28.44;49.07
39301;BME280;25019;42.626;23.380;2023-08-24T08:56:17;94592.22;;;28.58;48.57
39301;BME280;25019;42.626;23.380;2023-08-24T08:58:44;94587.34;;;28.67;48.44
39301;BME280;25019;42.626;23.380;2023-08-24T09:01:12;94583.50;;;28.71;48.29
39301;BME280;25019;42.626;23.380;2023-08-24T09:03:39;94573.78;;;28.74;48.67
39301;BME280;25019;42.626;23.380;2023-08-24T09:06:05;94569.50;;;28.93;47.82
39301;BME280;25019;42.626;23.380;2023-08-24T09:08:31;94575.88;;;29.00;47.95
39301;BME280;25019;42.626;23.380;2023-08-24T09:10:58;94571.00;;;29.10;48.33
39301;BME280;25019;42.626;23.380;2023-08-24T09:13:25;94566.13;;;29.23;47.43
39301;BME280;25019;42.626;23.380;2023-08-24T09:15:52;94555.72;;;29.32;47.07
39301;BME280;25019;42.626;23.380;2023-08-24T09:18:19;94558.63;;;29.39;47.04
39301;BME280;25019;42.626;23.380;2023-08-24T09:20:47;94564.63;;;29.49;46.67
39301;BME280;25019;42.626;23.380;2023-08-24T09:23:19;94545.56;;;29.56;46.72
39301;BME280;25019;42.626;23.380;2023-08-24T09:25:48;94551.91;;;29.60;46.90
39301;BME280;25019;42.626;23.380;2023-08-24T09:28:22;94543.75;;;29.64;46.75
39301;BME280;25019;42.626;23.380;2023-08-24T09:30:52;94541.44;;;29.66;46.88
39301;BME280;25019;42.626;23.380;2023-08-24T09:33:20;94478.41;;;29.35;47.44
39301;BME280;25019;42.626;23.380;2023-08-24T09:35:53;94534.69;;;29.86;46.75
39301;BME280;25019;42.626;23.380;2023-08-24T09:38:22;94494.50;;;29.64;45.17
39301;BME280;25019;42.626;23.380;2023-08-24T09:40:52;94529.44;;;30.01;44.96
39301;BME280;25019;42.626;23.380;2023-08-24T09:43:19;94522.47;;;30.03;45.12
39301;BME280;25019;42.626;23.380;2023-08-24T09:45:55;94513.50;;;30.07;45.04
39301;BME280;25019;42.626;23.380;2023-08-24T09:48:22;94517.44;;;30.09;44.81
39301;BME280;25019;42.626;23.380;2023-08-24T09:50:51;94516.06;;;30.23;44.65
39301;BME280;25019;42.626;23.380;2023-08-24T09:53:21;94518.59;;;30.39;45.11
39301;BME280;25019;42.626;23.380;2023-08-24T09:58:18;94460.94;;;30.28;43.75
39301;BME280;25019;42.626;23.380;2023-08-24T10:00:46;94508.00;;;30.71;43.18
39301;BME280;25019;42.626;23.380;2023-08-24T10:03:16;94500.66;;;30.79;43.12
39301;BME280;25019;42.626;23.380;2023-08-24T10:05:47;94492.88;;;30.85;42.55
39301;BME280;25019;42.626;23.380;2023-08-24T10:08:18;94500.06;;;31.00;42.14
39301;BME280;25019;42.626;23.380;2023-08-24T10:10:46;94461.00;;;30.66;41.61
39301;BME280;25019;42.626;23.380;2023-08-24T10:14:08;94495.97;;;30.79;42.09
39301;BME280;25019;42.626;23.380;2023-08-24T10:16:08;94499.16;;;30.89;41.58
39301;BME280;25019;42.626;23.380;2023-08-24T10:18:34;94494.78;;;31.18;41.01
39301;BME280;25019;42.626;23.380;2023-08-24T10:21:00;94489.59;;;31.13;40.93
39301;BME280;25019;42.626;23.380;2023-08-24T10:23:30;94416.94;;;30.89;40.36
39301;BME280;25019;42.626;23.380;2023-08-24T10:25:57;94486.03;;;31.54;39.12
39301;BME280;25019;42.626;23.380;2023-08-24T10:28:24;94497.28;;;31.94;38.74
39301;BME280;25019;42.626;23.380;2023-08-24T10:30:53;94480.25;;;32.44;37.86
39301;BME280;25019;42.626;23.380;2023-08-24T10:33:20;94484.63;;;32.70;37.05
39301;BME280;25019;42.626;23.380;2023-08-24T10:35:48;94482.75;;;32.89;36.75
39301;BME280;25019;42.626;23.380;2023-08-24T10:38:27;94472.53;;;33.11;36.56
39301;BME280;25019;42.626;23.380;2023-08-24T10:40:54;94466.63;;;33.35;35.45
39301;BME280;25019;42.626;23.380;2023-08-24T10:43:20;94468.22;;;33.25;36.70
39301;BME280;25019;42.626;23.380;2023-08-24T10:45:57;94465.88;;;33.45;35.70
39301;BME280;25019;42.626;23.380;2023-08-24T10:48:32;94463.13;;;33.41;36.01
39301;BME280;25019;42.626;23.380;2023-08-24T10:51:22;94472.56;;;33.44;36.20
39301;BME280;25019;42.626;23.380;2023-08-24T10:56:17;94463.91;;;33.45;34.80
39301;BME280;25019;42.626;23.380;2023-08-24T10:58:47;94466.63;;;33.35;36.15
39301;BME280;25019;42.626;23.380;2023-08-24T11:03:54;94433.22;;;33.51;35.32
39301;BME280;25019;42.626;23.380;2023-08-24T11:06:21;94445.81;;;33.52;35.80
39301;BME280;25019;42.626;23.380;2023-08-24T11:08:48;94425.38;;;33.06;35.86
39301;BME280;25019;42.626;23.380;2023-08-24T11:11:21;94451.31;;;33.30;35.56
39301;BME280;25019;42.626;23.380;2023-08-24T11:17:18;94433.25;;;32.93;36.98
39301;BME280;25019;42.626;23.380;2023-08-24T11:19:51;94427.34;;;32.91;36.63
39301;BME280;25019;42.626;23.380;2023-08-24T11:22:18;94437.50;;;32.54;37.90
39301;BME280;25019;42.626;23.380;2023-08-24T11:24:44;94356.00;;;31.77;39.42
39301;BME280;25019;42.626;23.380;2023-08-24T11:27:10;94438.13;;;32.11;40.16
39301;BME280;25019;42.626;23.380;2023-08-24T11:29:36;94449.09;;;32.11;40.43
39301;BME280;25019;42.626;23.380;2023-08-24T11:32:02;94440.75;;;31.86;39.90
39301;BME280;25019;42.626;23.380;2023-08-24T11:34:28;94445.72;;;31.69;40.81
39301;BME280;25019;42.626;23.380;2023-08-24T11:36:54;94452.75;;;31.59;41.39
39301;BME280;25019;42.626;23.380;2023-08-24T11:39:22;94445.91;;;31.31;42.30
39301;BME280;25019;42.626;23.380;2023-08-24T11:42:00;94456.78;;;31.20;42.36
39301;BME280;25019;42.626;23.380;2023-08-24T11:44:27;94454.50;;;30.85;43.28
39301;BME280;25019;42.626;23.380;2023-08-24T11:46:53;94468.06;;;30.70;43.70
39301;BME280;25019;42.626;23.380;2023-08-24T11:49:21;94418.88;;;30.09;45.33
39301;BME280;25019;42.626;23.380;2023-08-24T11:51:47;94454.88;;;30.11;45.96
39301;BME280;25019;42.626;23.380;2023-08-24T11:54:16;94446.81;;;29.92;46.33
39301;BME280;25019;42.626;23.380;2023-08-24T11:56:44;94445.56;;;29.89;46.89
39301;BME280;25019;42.626;23.380;2023-08-24T11:59:15;94443.41;;;29.71;46.99
39301;BME280;25019;42.626;23.380;2023-08-24T12:01:42;94434.75;;;29.66;47.79
39301;BME280;25019;42.626;23.380;2023-08-24T12:04:08;94440.16;;;29.62;47.82
39301;BME280;25019;42.626;23.380;2023-08-24T12:06:35;94442.69;;;29.48;47.96
39301;BME280;25019;42.626;23.380;2023-08-24T12:09:00;94400.13;;;29.23;47.73
39301;BME280;25019;42.626;23.380;2023-08-24T12:11:35;94436.41;;;29.47;48.01
39301;BME280;25019;42.626;23.380;2023-08-24T12:14:01;94438.19;;;29.36;47.96
39301;BME280;25019;42.626;23.380;2023-08-24T12:16:26;94386.47;;;29.00;47.92
39301;BME280;25019;42.626;23.380;2023-08-24T12:18:55;94424.59;;;29.16;47.99
39301;BME280;25019;42.626;23.380;2023-08-24T12:21:24;94415.66;;;29.19;47.61
39301;BME280;25019;42.626;23.380;2023-08-24T12:23:59;94442.88;;;29.35;48.11
39301;BME280;25019;42.626;23.380;2023-08-24T12:26:26;94404.75;;;29.19;47.91
39301;BME280;25019;42.626;23.380;2023-08-24T12:28:53;94448.78;;;29.37;48.07
39301;BME280;25019;42.626;23.380;2023-08-24T12:31:19;94431.72;;;29.21;49.07
39301;BME280;25019;42.626;23.380;2023-08-24T12:33:45;94459.03;;;29.44;48.89
39301;BME280;25019;42.626;23.380;2023-08-24T12:36:11;94456.56;;;29.62;49.21
39301;BME280;25019;42.626;23.380;2023-08-24T12:38:36;94459.44;;;29.73;49.18
39301;BME280;25019;42.626;23.380;2023-08-24T12:41:02;94436.38;;;29.74;49.38
39301;BME280;25019;42.626;23.380;2023-08-24T12:43:28;94451.88;;;29.93;49.00
39301;BME280;25019;42.626;23.380;2023-08-24T12:45:53;94453.94;;;30.00;48.70
39301;BME280;25019;42.626;23.380;2023-08-24T12:48:19;94425.81;;;29.72;48.63
39301;BME280;25019;42.626;23.380;2023-08-24T12:50:45;94432.47;;;29.71;48.40
39301;BME280;25019;42.626;23.380;2023-08-24T12:53:10;94456.16;;;29.90;48.09
39301;BME280;25019;42.626;23.380;2023-08-24T12:55:39;94463.81;;;30.04;47.91
39301;BME280;25019;42.626;23.380;2023-08-24T12:58:05;94472.84;;;30.09;46.95
39301;BME280;25019;42.626;23.380;2023-08-24T13:00:31;94472.56;;;30.17;46.35
39301;BME280;25019;42.626;23.380;2023-08-24T13:02:57;94473.75;;;30.20;46.46